Time;durP1;ratioP1;P1;durP2;ratioP2;P2;SDS_P1;SDS_P2;PMS_P1;PMS_P2;Temp;Humidity;BMP_temperature;BMP_pressure;BME280_temperature;BME280_humidity;BME280_pressure;Samples;Min_cycle;Max_cycle;Signal;HPM_P1;HPM_P2
2023/12/25 00:30:53;;;;;;;;;;;;;;;6.29;50.26;99619.24;106191;1258;67109;-80
2023/12/25 00:33:27;;;;;;;;;;;;;;;6.29;50.57;99624.62;106134;1254;72644;-80
2023/12/25 00:36:01;;;;;;;;;;;;;;;6.20;50.52;99621.25;106200;1253;61170;-80
2023/12/25 00:38:35;;;;;;;;;;;;;;;6.08;50.78;99624.45;106187;1253;61138;-80
2023/12/25 00:41:09;;;;;;;;;;;;;;;6.02;51.09;99624.81;106450;1253;73377;-80
2023/12/25 00:43:43;;;;;;;;;;;;;;;5.98;50.93;99618.56;106150;1254;71500;-80
2023/12/25 00:46:18;;;;;;;;;;;;;;;5.96;51.43;99621.72;106280;1254;73140;-80
2023/12/25 00:48:51;;;;;;;;;;;;;;;6.04;51.08;99621.29;106506;1258;61245;-80
2023/12/25 00:51:28;;;;;;;;;;;;;;;5.96;51.59;99616.77;106360;1253;61247;-80
2023/12/25 00:54:00;;;;;;;;;;;;;;;5.91;51.39;99621.89;106522;1253;74664;-80
2023/12/25 00:56:32;;;;;;;;;;;;;;;5.95;51.54;99608.76;106177;1253;68629;-80
2023/12/25 00:59:06;;;;;;;;;;;;;;;5.98;51.37;99601.23;106361;1254;72852;-80
2023/12/25 01:01:46;;;;;;;;;;;;;;;5.91;51.65;99594.98;106160;1255;61267;-80
2023/12/25 01:04:26;;;;;;;;;;;;;;;5.91;51.56;99588.83;106393;1258;61160;-80
2023/12/25 01:07:05;;;;;;;;;;;;;;;5.84;51.75;99588.20;106232;1253;73506;-80
2023/12/25 01:09:39;;;;;;;;;;;;;;;5.82;52.10;99582.19;106152;1260;67147;-80
2023/12/25 01:12:19;;;;;;;;;;;;;;;5.81;52.10;99568.45;106369;1253;73141;-80
2023/12/25 01:14:58;;;;;;;;;;;;;;;5.78;52.43;99561.30;106241;1258;61793;-80
2023/12/25 01:17:32;;;;;;;;;;;;;;;5.78;52.50;99564.11;106151;1258;62001;-79
2023/12/25 01:20:06;;;;;;;;;;;;;;;5.89;52.26;99557.89;106328;1253;74705;-80
2023/12/25 01:22:46;;;;;;;;;;;;;;;5.94;52.18;99553.05;106620;1258;67115;-80
2023/12/25 01:25:26;;;;;;;;;;;;;;;5.96;51.96;99547.34;106260;1254;72704;-80
2023/12/25 01:28:00;;;;;;;;;;;;;;;5.86;52.24;99543.36;106458;1257;61258;-80
2023/12/25 01:30:33;;;;;;;;;;;;;;;5.91;52.26;99538.60;106191;1254;61296;-80
2023/12/25 01:33:07;;;;;;;;;;;;;;;6.01;52.01;99529.35;106255;1254;73448;-80
2023/12/25 01:35:41;;;;;;;;;;;;;;;6.00;52.15;99516.94;106190;1253;67236;-80
2023/12/25 01:38:15;;;;;;;;;;;;;;;5.99;52.05;99496.77;106255;1253;71429;-80
2023/12/25 01:40:43;;;;;;;;;;;;;;;5.95;52.20;99483.66;106390;1254;61334;-80
2023/12/25 01:43:17;;;;;;;;;;;;;;;5.97;52.08;99478.74;106365;1253;61262;-80
2023/12/25 01:45:56;;;;;;;;;;;;;;;6.06;52.10;99475.05;106299;1255;74662;-80
2023/12/25 01:48:24;;;;;;;;;;;;;;;6.11;51.73;99468.27;106440;1253;68568;-80
2023/12/25 01:51:00;;;;;;;;;;;;;;;6.19;51.84;99470.32;106393;1255;72680;-80
2023/12/25 01:53:34;;;;;;;;;;;;;;;6.17;51.81;99476.07;106244;1254;61253;-80
2023/12/25 01:56:08;;;;;;;;;;;;;;;6.16;51.93;99484.70;106400;1254;61344;-80
2023/12/25 01:58:41;;;;;;;;;;;;;;;6.24;51.78;99481.27;106100;1254;73747;-80
2023/12/25 02:01:15;;;;;;;;;;;;;;;6.31;51.87;99479.52;106267;1254;68769;-80
2023/12/25 02:03:49;;;;;;;;;;;;;;;6.38;51.70;99487.80;106419;1253;72818;-80
2023/12/25 02:06:23;;;;;;;;;;;;;;;6.49;51.65;99488.16;106671;1255;61241;-80
2023/12/25 02:08:57;;;;;;;;;;;;;;;6.57;51.62;99487.55;106675;1254;60395;-80
2023/12/25 02:11:37;;;;;;;;;;;;;;;6.64;51.41;99481.64;107674;1257;74626;-80
2023/12/25 02:14:17;;;;;;;;;;;;;;;6.74;51.08;99468.69;106160;1253;68371;-80
2023/12/25 02:16:50;;;;;;;;;;;;;;;6.78;51.10;99448.80;106185;1256;72656;-80
2023/12/25 02:19:24;;;;;;;;;;;;;;;6.92;50.92;99436.88;106250;1260;61179;-80
2023/12/25 02:22:07;;;;;;;;;;;;;;;7.05;50.78;99436.70;106356;1258;60990;-80
2023/12/25 02:25:05;;;;;;;;;;;;;;;7.13;50.30;99436.33;106268;1254;74650;-80
2023/12/25 02:27:45;;;;;;;;;;;;;;;7.08;50.31;99446.02;106303;1258;67096;-80
2023/12/25 02:30:13;;;;;;;;;;;;;;;7.11;50.48;99446.45;106188;1256;72705;-80
2023/12/25 02:32:52;;;;;;;;;;;;;;;7.07;50.25;99444.58;106276;1255;61924;-80
2023/12/25 02:35:31;;;;;;;;;;;;;;;7.09;50.48;99436.78;106383;1253;61253;-80
2023/12/25 02:38:04;;;;;;;;;;;;;;;7.14;50.19;99428.39;106168;1253;73337;-80
2023/12/25 02:40:35;;;;;;;;;;;;;;;7.17;50.27;99431.05;106294;1253;68386;-81
2023/12/25 02:43:09;;;;;;;;;;;;;;;7.14;50.09;99428.39;106226;1258;71375;-80
2023/12/25 02:45:49;;;;;;;;;;;;;;;7.15;50.32;99419.85;106121;1258;61225;-80
2023/12/25 02:48:23;;;;;;;;;;;;;;;7.22;50.27;99409.52;106453;1253;61522;-80
2023/12/25 02:50:57;;;;;;;;;;;;;;;7.22;50.27;99398.06;106288;1253;74577;-80
2023/12/25 02:53:31;;;;;;;;;;;;;;;7.23;50.58;99391.64;106377;1254;70053;-80
2023/12/25 02:56:05;;;;;;;;;;;;;;;7.25;50.60;99387.55;106054;1256;71627;-81
2023/12/25 02:58:38;;;;;;;;;;;;;;;7.34;50.22;99387.60;106239;1253;61461;-81
2023/12/25 03:01:13;;;;;;;;;;;;;;;7.35;50.37;99382.33;106203;1253;62020;-81
2023/12/25 03:03:46;;;;;;;;;;;;;;;7.38;50.43;99382.80;106174;1257;74634;-81
2023/12/25 03:06:20;;;;;;;;;;;;;;;7.39;50.53;99379.95;106266;1253;68397;-81
2023/12/25 03:08:54;;;;;;;;;;;;;;;7.59;50.22;99386.20;106052;1256;72687;-81
2023/12/25 03:11:28;;;;;;;;;;;;;;;7.69;49.94;99386.23;106327;1255;61295;-81
2023/12/25 03:14:02;;;;;;;;;;;;;;;7.72;49.68;99387.71;106272;1253;61350;-81
2023/12/25 03:16:36;;;;;;;;;;;;;;;7.74;49.88;99387.58;106282;1253;75166;-81
2023/12/25 03:19:10;;;;;;;;;;;;;;;7.80;49.74;99388.58;106209;1258;68395;-81
2023/12/25 03:21:44;;;;;;;;;;;;;;;7.86;49.64;99379.11;106311;1258;71721;-81
2023/12/25 03:24:25;;;;;;;;;;;;;;;7.79;49.92;99370.95;106031;1260;61499;-80
2023/12/25 03:27:04;;;;;;;;;;;;;;;7.78;50.08;99365.20;106255;1253;61183;-80
2023/12/25 03:29:44;;;;;;;;;;;;;;;7.78;50.17;99361.98;106398;1253;75399;-80
2023/12/25 03:32:19;;;;;;;;;;;;;;;7.79;50.50;99359.20;106368;1254;68288;-80
2023/12/25 03:34:58;;;;;;;;;;;;;;;7.86;50.39;99349.07;106269;1253;72676;-80
2023/12/25 03:37:38;;;;;;;;;;;;;;;7.82;50.81;99342.03;106264;1256;61202;-80
2023/12/25 03:40:12;;;;;;;;;;;;;;;7.81;50.81;99336.45;106146;1253;61264;-80
2023/12/25 03:42:45;;;;;;;;;;;;;;;7.81;51.08;99335.09;106267;1258;74682;-80
2023/12/25 03:45:25;;;;;;;;;;;;;;;7.81;51.20;99328.29;106323;1258;67582;-81
2023/12/25 03:47:59;;;;;;;;;;;;;;;7.75;51.58;99322.70;106311;1258;71353;-80
2023/12/25 03:50:29;;;;;;;;;;;;;;;7.77;51.76;99321.20;106416;1254;61238;-81
2023/12/25 03:53:01;;;;;;;;;;;;;;;7.76;51.93;99316.91;106133;1253;61286;-81
2023/12/25 03:55:39;;;;;;;;;;;;;;;7.74;52.28;99309.59;106110;1254;73471;-80
2023/12/25 03:58:18;;;;;;;;;;;;;;;7.85;52.21;99301.21;106155;1258;67458;-81
2023/12/25 04:00:52;;;;;;;;;;;;;;;7.82;52.45;99294.94;106171;1253;72379;-81
2023/12/25 04:03:26;;;;;;;;;;;;;;;7.86;52.80;99290.53;106313;1255;61392;-81
2023/12/25 04:06:00;;;;;;;;;;;;;;;7.96;52.51;99283.34;106152;1254;61354;-81
2023/12/25 04:08:33;;;;;;;;;;;;;;;7.97;52.83;99280.39;106181;1255;73546;-81
2023/12/25 04:11:07;;;;;;;;;;;;;;;8.02;52.75;99275.60;106309;1258;68409;-81
2023/12/25 04:13:41;;;;;;;;;;;;;;;8.01;52.85;99269.09;106012;1253;72707;-81
2023/12/25 04:16:19;;;;;;;;;;;;;;;8.07;52.94;99261.08;106294;1256;61225;-81
2023/12/25 04:18:53;;;;;;;;;;;;;;;8.14;52.97;99257.43;106372;1258;61267;-81
2023/12/25 04:21:28;;;;;;;;;;;;;;;8.16;53.03;99252.45;106237;1253;73359;-81
2023/12/25 04:24:03;;;;;;;;;;;;;;;8.13;53.21;99245.54;106231;1253;67145;-81
2023/12/25 04:26:37;;;;;;;;;;;;;;;8.18;53.30;99247.09;106328;1258;72777;-81
2023/12/25 04:29:11;;;;;;;;;;;;;;;8.11;53.53;99247.58;106151;1253;61238;-80
2023/12/25 04:31:39;;;;;;;;;;;;;;;8.09;53.86;99238.29;106059;1253;61403;-81
2023/12/25 04:34:06;;;;;;;;;;;;;;;8.08;54.11;99238.64;106302;1253;74131;-81
2023/12/25 04:36:40;;;;;;;;;;;;;;;8.05;54.25;99237.70;106220;1253;67597;-81
2023/12/25 04:39:14;;;;;;;;;;;;;;;8.14;54.23;99238.02;106104;1256;71996;-82
2023/12/25 04:41:48;;;;;;;;;;;;;;;8.09;54.68;99229.92;106143;1258;61293;-82
2023/12/25 04:44:22;;;;;;;;;;;;;;;8.00;55.08;99227.69;106173;1253;61435;-82
2023/12/25 04:46:56;;;;;;;;;;;;;;;8.01;55.32;99220.29;106199;1253;73489;-82
2023/12/25 04:49:31;;;;;;;;;;;;;;;8.10;55.32;99214.34;106341;1253;68592;-82
2023/12/25 04:52:05;;;;;;;;;;;;;;;8.20;55.15;99206.10;106402;1253;72764;-82
2023/12/25 04:54:40;;;;;;;;;;;;;;;8.11;55.48;99203.11;106172;1258;61332;-82
2023/12/25 04:57:14;;;;;;;;;;;;;;;8.05;55.75;99188.72;106112;1253;61253;-82
2023/12/25 04:59:47;;;;;;;;;;;;;;;8.06;56.16;99184.14;106099;1260;73802;-82
2023/12/25 05:02:21;;;;;;;;;;;;;;;8.09;56.10;99178.86;106152;1253;68597;-82
2023/12/25 05:05:02;;;;;;;;;;;;;;;8.13;56.13;99176.58;106203;1256;71417;-81
2023/12/25 05:07:43;;;;;;;;;;;;;;;8.07;56.51;99172.90;106179;1259;61840;-80
2023/12/25 05:10:22;;;;;;;;;;;;;;;8.13;56.59;99157.38;106328;1258;61124;-80
2023/12/25 05:12:56;;;;;;;;;;;;;;;8.24;56.41;99148.13;106193;1253;73421;-81
2023/12/25 05:15:35;;;;;;;;;;;;;;;8.32;56.33;99140.11;106408;1258;67243;-81
2023/12/25 05:18:15;;;;;;;;;;;;;;;8.31;56.56;99133.05;106339;1253;72711;-81
2023/12/25 05:20:55;;;;;;;;;;;;;;;8.36;56.51;99127.36;106179;1256;61573;-81
2023/12/25 05:23:22;;;;;;;;;;;;;;;8.37;56.69;99125.98;106137;1260;61174;-81
2023/12/25 05:26:02;;;;;;;;;;;;;;;8.42;56.59;99117.44;106286;1257;73409;-81
2023/12/25 05:28:41;;;;;;;;;;;;;;;8.49;56.63;99119.40;106556;1253;68381;-81
2023/12/25 05:31:13;;;;;;;;;;;;;;;8.54;56.47;99113.21;106286;1255;73629;-81
2023/12/25 05:33:45;;;;;;;;;;;;;;;8.55;56.65;99113.31;106232;1254;61112;-81
2023/12/25 05:36:23;;;;;;;;;;;;;;;8.65;56.58;99112.48;106277;1253;61974;-81
2023/12/25 05:39:01;;;;;;;;;;;;;;;8.67;56.48;99100.36;106095;1254;73414;-81
2023/12/25 05:41:53;;;;;;;;;;;;;;;8.71;56.51;99092.88;106114;1253;68373;-81
2023/12/25 05:44:21;;;;;;;;;;;;;;;8.74;56.64;99086.34;106410;1258;72731;-81
2023/12/25 05:46:55;;;;;;;;;;;;;;;8.73;56.69;99075.14;106283;1255;61280;-81
2023/12/25 05:49:35;;;;;;;;;;;;;;;8.68;57.00;99065.63;106484;1253;61238;-81
2023/12/25 05:52:09;;;;;;;;;;;;;;;8.67;57.25;99055.31;106245;1258;74688;-81
2023/12/25 05:54:37;;;;;;;;;;;;;;;8.72;57.08;99048.30;106087;1261;69041;-81
2023/12/25 05:57:11;;;;;;;;;;;;;;;8.74;57.35;99043.46;106315;1253;72653;-81
2023/12/25 05:59:50;;;;;;;;;;;;;;;8.75;57.72;99043.45;106171;1258;61198;-81
2023/12/25 06:02:30;;;;;;;;;;;;;;;8.75;58.00;99027.83;106361;1253;61149;-81
2023/12/25 06:05:10;;;;;;;;;;;;;;;8.86;57.91;99020.92;106392;1253;74777;-81
2023/12/25 06:07:50;;;;;;;;;;;;;;;8.83;58.23;99028.64;106427;1253;68864;-81
2023/12/25 06:10:30;;;;;;;;;;;;;;;8.86;58.57;99023.35;106225;1253;71407;-81
2023/12/25 06:13:10;;;;;;;;;;;;;;;8.98;58.31;99013.58;106324;1253;62140;-81
2023/12/25 06:15:49;;;;;;;;;;;;;;;9.08;58.21;99000.58;106506;1258;61122;-81
2023/12/25 06:18:29;;;;;;;;;;;;;;;9.10;58.44;99004.41;106226;1253;73461;-82
2023/12/25 06:21:09;;;;;;;;;;;;;;;9.15;58.61;99002.61;106201;1253;67300;-82
2023/12/25 06:23:42;;;;;;;;;;;;;;;9.27;58.64;99004.74;106222;1261;72494;-83
2023/12/25 06:26:16;;;;;;;;;;;;;;;9.36;58.57;98997.45;106209;1255;61222;-83
2023/12/25 06:28:50;;;;;;;;;;;;;;;9.39;58.84;98992.15;106177;1253;61340;-83
2023/12/25 06:31:23;;;;;;;;;;;;;;;9.42;59.03;98998.64;106122;1257;74714;-83
2023/12/25 06:33:57;;;;;;;;;;;;;;;9.54;58.92;99000.12;106031;1253;68346;-83
2023/12/25 06:36:31;;;;;;;;;;;;;;;9.59;58.87;98998.91;106397;1253;72679;-83
2023/12/25 06:39:05;;;;;;;;;;;;;;;9.61;59.22;98998.42;106177;1256;61228;-83
2023/12/25 06:41:39;;;;;;;;;;;;;;;9.63;59.29;98985.33;106217;1254;61308;-83
2023/12/25 06:44:13;;;;;;;;;;;;;;;9.73;59.42;98976.89;106289;1256;73476;-83
2023/12/25 06:46:46;;;;;;;;;;;;;;;9.78;59.32;98977.88;106315;1253;67247;-82
2023/12/25 06:49:20;;;;;;;;;;;;;;;9.80;59.49;98969.02;106497;1256;71477;-81
2023/12/25 06:51:55;;;;;;;;;;;;;;;9.82;60.05;98972.29;106609;1253;64020;-82
2023/12/25 06:54:22;;;;;;;;;;;;;;;9.87;60.07;98963.21;106195;1253;61235;-81
2023/12/25 06:56:56;;;;;;;;;;;;;;;9.95;60.05;98961.98;106111;1253;73386;-81
2023/12/25 06:59:30;;;;;;;;;;;;;;;9.94;60.50;98958.78;106250;1253;68600;-81
2023/12/25 07:02:04;;;;;;;;;;;;;;;9.99;60.61;98949.88;106282;1256;71468;-82
2023/12/25 07:04:37;;;;;;;;;;;;;;;10.07;60.56;98950.01;106541;1253;61268;-81
2023/12/25 07:07:11;;;;;;;;;;;;;;;10.12;60.60;98957.71;106341;1260;61162;-81
2023/12/25 07:09:45;;;;;;;;;;;;;;;10.26;60.24;98953.65;106386;1253;75437;-79
2023/12/25 07:12:13;;;;;;;;;;;;;;;10.22;60.48;98934.73;106162;1261;67111;-79
2023/12/25 07:14:53;;;;;;;;;;;;;;;10.21;60.71;98940.35;106340;1255;72881;-81
2023/12/25 07:17:20;;;;;;;;;;;;;;;10.23;61.05;98941.45;106434;1255;61418;-80
2023/12/25 07:20:00;;;;;;;;;;;;;;;10.29;60.79;98930.16;106207;1258;61177;-80
2023/12/25 07:22:29;;;;;;;;;;;;;;;10.29;60.81;98932.77;106409;1258;73025;-80
2023/12/25 07:25:10;;;;;;;;;;;;;;;10.14;61.42;98943.11;106070;1255;68352;-80
2023/12/25 07:27:40;;;;;;;;;;;;;;;9.96;62.89;98943.46;106409;1258;72745;-79
2023/12/25 07:30:19;;;;;;;;;;;;;;;9.95;63.46;98945.35;106362;1253;61192;-79
2023/12/25 07:32:48;;;;;;;;;;;;;;;9.93;63.74;98936.38;106265;1253;62123;-79
2023/12/25 07:35:28;;;;;;;;;;;;;;;9.97;63.56;98930.42;106405;1253;78503;-79
2023/12/25 07:37:56;;;;;;;;;;;;;;;9.98;63.87;98931.79;106217;1258;68414;-80
2023/12/25 07:40:36;;;;;;;;;;;;;;;10.04;63.74;98933.52;106290;1261;72700;-80
2023/12/25 07:43:12;;;;;;;;;;;;;;;10.09;63.82;98921.58;109070;1253;59789;-82
2023/12/25 07:45:57;;;;;;;;;;;;;;;10.13;64.10;98907.75;108889;1253;64395;-82
2023/12/25 07:48:46;;;;;;;;;;;;;;;10.21;63.79;98913.07;108366;1253;77025;-83
2023/12/25 07:51:30;;;;;;;;;;;;;;;10.31;63.46;98914.77;106395;1254;67651;-82
2023/12/25 07:54:11;;;;;;;;;;;;;;;10.28;63.90;98904.70;106194;1256;73099;-83
2023/12/25 07:56:51;;;;;;;;;;;;;;;10.19;64.75;98894.71;106708;1255;61251;-83
2023/12/25 07:59:30;;;;;;;;;;;;;;;10.22;65.11;98899.06;106232;1259;61336;-84
2023/12/25 08:02:11;;;;;;;;;;;;;;;10.27;65.42;98902.05;106168;1260;76838;-84
2023/12/25 08:04:49;;;;;;;;;;;;;;;10.40;65.15;98896.75;106807;1253;68835;-83
2023/12/25 08:07:22;;;;;;;;;;;;;;;10.45;65.47;98902.08;106476;1258;71477;-82
2023/12/25 08:09:56;;;;;;;;;;;;;;;10.50;65.54;98894.92;106365;1261;61340;-81
2023/12/25 08:12:30;;;;;;;;;;;;;;;10.59;65.40;98898.48;106367;1253;61125;-84
2023/12/25 08:15:04;;;;;;;;;;;;;;;10.69;64.93;98892.23;106606;1260;76275;-81
2023/12/25 08:17:38;;;;;;;;;;;;;;;10.73;65.14;98887.27;106377;1258;67407;-82
2023/12/25 08:20:12;;;;;;;;;;;;;;;10.75;65.23;98886.60;106124;1259;181759;-81
2023/12/25 08:22:46;;;;;;;;;;;;;;;10.63;66.35;98888.70;106318;1253;61351;-81
2023/12/25 08:25:20;;;;;;;;;;;;;;;10.62;66.77;98881.36;106264;1253;61173;-82
2023/12/25 08:27:54;;;;;;;;;;;;;;;10.59;67.51;98875.51;106790;1253;73380;-81
2023/12/25 08:30:28;;;;;;;;;;;;;;;10.66;67.86;98874.52;106437;1254;68666;-81
2023/12/25 08:33:03;;;;;;;;;;;;;;;10.87;66.89;98870.45;106203;1261;73490;-81
2023/12/25 08:35:36;;;;;;;;;;;;;;;10.98;66.66;98861.98;106318;1254;61201;-81
2023/12/25 08:38:11;;;;;;;;;;;;;;;11.10;66.11;98845.42;106153;1259;60883;-81
2023/12/25 08:40:45;;;;;;;;;;;;;;;11.09;66.34;98838.56;106322;1259;74668;-81
2023/12/25 08:43:19;;;;;;;;;;;;;;;11.12;66.82;98829.55;106250;1258;69008;-80
2023/12/25 08:45:52;;;;;;;;;;;;;;;11.22;66.88;98823.41;106300;1258;74077;-81
2023/12/25 08:48:26;;;;;;;;;;;;;;;11.35;66.84;98821.33;106440;1253;61192;-80
2023/12/25 08:51:02;;;;;;;;;;;;;;;11.41;67.12;98819.42;106404;1258;63146;-81
2023/12/25 08:53:42;;;;;;;;;;;;;;;11.55;67.28;98821.27;106176;1253;73702;-81
2023/12/25 08:56:10;;;;;;;;;;;;;;;11.63;67.16;98821.31;106302;1253;69396;-81
2023/12/25 08:58:50;;;;;;;;;;;;;;;11.73;66.99;98814.46;106252;1258;73237;-80
2023/12/25 09:01:17;;;;;;;;;;;;;;;11.94;66.56;98814.36;106268;1258;61219;-81
2023/12/25 09:03:57;;;;;;;;;;;;;;;11.98;66.50;98808.30;106756;1255;61320;-81
2023/12/25 09:06:32;;;;;;;;;;;;;;;11.92;66.49;98805.66;106372;1255;76258;-81
2023/12/25 09:09:12;;;;;;;;;;;;;;;11.94;66.33;98803.48;106348;1254;68499;-81
2023/12/25 09:11:52;;;;;;;;;;;;;;;11.83;66.41;98792.92;106379;1254;72699;-81
2023/12/25 09:14:31;;;;;;;;;;;;;;;11.78;67.27;98787.94;106290;1261;61175;-81
2023/12/25 09:17:11;;;;;;;;;;;;;;;11.89;66.92;98784.71;106221;1253;61166;-81
2023/12/25 09:19:52;;;;;;;;;;;;;;;11.98;66.93;98786.35;106541;1256;74686;-82
2023/12/25 09:22:32;;;;;;;;;;;;;;;12.06;67.14;98774.55;106425;1259;68378;-83
2023/12/25 09:25:12;;;;;;;;;;;;;;;12.23;66.55;98774.59;106408;1258;72719;-81
2023/12/25 09:27:52;;;;;;;;;;;;;;;12.24;66.21;98774.33;106418;1253;61173;-81
2023/12/25 09:30:30;;;;;;;;;;;;;;;12.24;66.64;98771.41;106385;1258;61310;-81
2023/12/25 09:33:04;;;;;;;;;;;;;;;12.32;66.70;98755.23;106407;1259;74972;-81
2023/12/25 09:35:38;;;;;;;;;;;;;;;12.26;67.65;98768.45;106502;1259;69186;-81
2023/12/25 09:38:12;;;;;;;;;;;;;;;12.21;68.72;98769.10;106692;1254;71383;-81
2023/12/25 09:40:39;;;;;;;;;;;;;;;12.27;68.93;98763.95;106658;1258;61334;-81
2023/12/25 09:43:16;;;;;;;;;;;;;;;12.25;69.44;98761.37;106385;1253;61404;-80
2023/12/25 09:45:56;;;;;;;;;;;;;;;12.28;69.61;98753.88;106238;1258;74659;-81
2023/12/25 09:48:23;;;;;;;;;;;;;;;12.41;69.60;98748.90;106625;1254;67745;-80
2023/12/25 09:51:03;;;;;;;;;;;;;;;12.65;68.74;98749.05;106494;1258;74720;-80
2023/12/25 09:53:31;;;;;;;;;;;;;;;12.73;68.72;98750.05;106432;1255;61684;-81
2023/12/25 09:56:05;;;;;;;;;;;;;;;12.69;69.52;98747.37;106466;1259;61323;-80
2023/12/25 09:58:38;;;;;;;;;;;;;;;12.72;69.95;98734.09;106333;1258;74715;-80
2023/12/25 10:01:12;;;;;;;;;;;;;;;12.79;70.22;98732.41;106592;1254;68378;-80
2023/12/25 10:03:46;;;;;;;;;;;;;;;12.85;70.74;98733.82;106491;1255;74866;-81
2023/12/25 10:06:20;;;;;;;;;;;;;;;12.93;70.83;98733.30;106509;1253;62048;-81
2023/12/25 10:08:55;;;;;;;;;;;;;;;12.92;71.62;98737.56;106555;1252;61858;-81
2023/12/25 10:11:29;;;;;;;;;;;;;;;13.01;71.84;98734.35;106342;1257;73673;-81
2023/12/25 10:14:03;;;;;;;;;;;;;;;13.00;72.26;98730.11;106400;1257;68696;-81
2023/12/25 10:16:36;;;;;;;;;;;;;;;13.15;72.07;98726.09;106426;1256;71784;-81
2023/12/25 10:19:11;;;;;;;;;;;;;;;13.35;71.57;98714.48;106478;1254;61410;-81
2023/12/25 10:21:46;;;;;;;;;;;;;;;13.43;71.35;98710.40;106411;1257;61400;-81
2023/12/25 10:24:24;;;;;;;;;;;;;;;13.49;71.64;98716.86;106269;1259;74665;-81
2023/12/25 10:27:02;;;;;;;;;;;;;;;13.54;71.94;98715.04;106441;1259;67451;-81
2023/12/25 10:29:37;;;;;;;;;;;;;;;13.58;72.07;98720.35;106400;1261;73646;-81
2023/12/25 10:32:23;;;;;;;;;;;;;;;13.66;71.70;98725.18;106288;1258;62813;-81
2023/12/25 10:35:19;;;;;;;;;;;;;;;13.66;72.06;98724.95;106193;1260;61153;-80
2023/12/25 10:37:47;;;;;;;;;;;;;;;13.68;72.24;98727.77;106289;1260;74688;-81
2023/12/25 10:40:24;;;;;;;;;;;;;;;13.86;71.33;98730.39;106328;1256;66961;-81
2023/12/25 10:43:04;;;;;;;;;;;;;;;13.96;70.58;98725.83;106318;1254;72732;-81
2023/12/25 10:45:35;;;;;;;;;;;;;;;14.18;68.86;98729.51;106472;1253;61704;-81
2023/12/25 10:48:14;;;;;;;;;;;;;;;14.20;67.96;98735.30;106440;1258;61140;-81
2023/12/25 10:50:43;;;;;;;;;;;;;;;14.29;67.63;98740.20;106514;1255;74000;-82
2023/12/25 10:53:21;;;;;;;;;;;;;;;14.33;67.10;98743.70;106388;1259;68998;-81
2023/12/25 10:55:59;;;;;;;;;;;;;;;14.37;66.77;98746.65;106222;1259;72673;-81
2023/12/25 10:58:32;;;;;;;;;;;;;;;14.35;66.51;98744.69;106369;1254;61656;-81
2023/12/25 11:01:06;;;;;;;;;;;;;;;14.28;66.42;98745.65;106279;1259;61333;-82
2023/12/25 11:03:40;;;;;;;;;;;;;;;14.31;66.28;98738.70;106425;1258;74894;-81
2023/12/25 11:06:14;;;;;;;;;;;;;;;14.33;65.67;98741.90;106049;1263;70686;-82
2023/12/25 11:08:48;;;;;;;;;;;;;;;14.37;65.43;98745.88;106226;1255;74655;-81
2023/12/25 11:11:23;;;;;;;;;;;;;;;14.46;64.85;98745.66;106385;1257;61219;-82
2023/12/25 11:13:57;;;;;;;;;;;;;;;14.53;64.63;98751.16;106584;1257;62027;-82
2023/12/25 11:16:31;;;;;;;;;;;;;;;14.53;64.74;98752.19;106533;1258;74961;-82
2023/12/25 11:19:04;;;;;;;;;;;;;;;14.45;65.33;98753.48;106329;1254;69157;-81
2023/12/25 11:21:38;;;;;;;;;;;;;;;14.39;65.91;98754.77;106372;1257;71449;-82
2023/12/25 11:24:12;;;;;;;;;;;;;;;14.43;66.10;98759.31;106493;1254;60779;-81
2023/12/25 11:26:47;;;;;;;;;;;;;;;14.47;66.46;98761.56;106375;1254;61279;-82
2023/12/25 11:29:21;;;;;;;;;;;;;;;14.59;65.90;98762.87;106569;1258;74728;-82
2023/12/25 11:31:55;;;;;;;;;;;;;;;14.58;65.89;98759.08;106392;1254;69657;-83
2023/12/25 11:34:32;;;;;;;;;;;;;;;14.60;66.28;98760.96;106382;1258;71394;-82
2023/12/25 11:37:06;;;;;;;;;;;;;;;14.68;66.47;98762.67;106251;1253;64315;-82
2023/12/25 11:39:40;;;;;;;;;;;;;;;14.79;65.99;98764.98;106318;1254;61096;-82
2023/12/25 11:42:14;;;;;;;;;;;;;;;14.92;65.08;98767.00;106362;1260;74759;-82
2023/12/25 11:44:48;;;;;;;;;;;;;;;14.97;64.41;98770.97;106274;1254;69103;-82
2023/12/25 11:47:31;;;;;;;;;;;;;;;15.01;64.19;98777.15;106524;1259;72661;-82
2023/12/25 11:50:05;;;;;;;;;;;;;;;15.02;64.60;98781.17;106918;1259;61334;-83
2023/12/25 11:52:53;;;;;;;;;;;;;;;15.09;64.89;98778.46;106869;1260;61165;-83
2023/12/25 11:55:27;;;;;;;;;;;;;;;15.15;64.56;98783.67;106797;1259;74673;-82
2023/12/25 11:58:02;;;;;;;;;;;;;;;15.05;64.98;98782.05;106790;1255;70742;-82
2023/12/25 12:00:36;;;;;;;;;;;;;;;15.06;64.98;98789.15;106900;1257;71077;-81
2023/12/25 12:03:10;;;;;;;;;;;;;;;15.19;64.16;98783.95;106731;1259;61356;-82
2023/12/25 12:05:45;;;;;;;;;;;;;;;15.03;64.37;98786.85;106803;1253;61212;-82
2023/12/25 12:08:21;;;;;;;;;;;;;;;14.88;65.14;98785.87;106687;1253;74616;-82
2023/12/25 12:10:55;;;;;;;;;;;;;;;14.89;65.00;98778.22;106840;1254;68391;-82
2023/12/25 12:13:28;;;;;;;;;;;;;;;14.85;65.16;98778.13;106967;1253;72695;-82
2023/12/25 12:16:03;;;;;;;;;;;;;;;14.88;65.34;98775.75;106735;1255;61270;-81
2023/12/25 12:18:37;;;;;;;;;;;;;;;14.90;65.41;98770.91;107000;1259;61206;-82
2023/12/25 12:21:11;;;;;;;;;;;;;;;14.96;65.38;98767.65;106910;1254;73936;-82
2023/12/25 12:23:45;;;;;;;;;;;;;;;14.94;65.48;98771.69;106708;1253;68843;-82
2023/12/25 12:26:18;;;;;;;;;;;;;;;14.98;65.50;98768.81;106729;1254;71408;-82
2023/12/25 12:28:52;;;;;;;;;;;;;;;15.09;65.11;98776.52;106582;1259;61917;-82
2023/12/25 12:31:30;;;;;;;;;;;;;;;15.07;65.45;98775.20;106305;1259;62023;-81
2023/12/25 12:34:10;;;;;;;;;;;;;;;15.10;65.25;98780.77;106596;1258;74635;-82
2023/12/25 12:37:00;;;;;;;;;;;;;;;15.14;65.13;98780.72;106512;1254;68702;-82
2023/12/25 12:39:40;;;;;;;;;;;;;;;15.11;65.05;98781.19;106362;1257;71390;-82
2023/12/25 12:42:20;;;;;;;;;;;;;;;15.07;65.31;98791.15;106704;1257;61305;-82
2023/12/25 12:45:01;;;;;;;;;;;;;;;15.11;64.86;98781.67;106370;1254;61139;-82
2023/12/25 12:47:41;;;;;;;;;;;;;;;15.00;65.42;98784.51;106667;1257;75617;-82
2023/12/25 12:50:21;;;;;;;;;;;;;;;15.01;65.63;98776.45;106737;1254;68435;-82
2023/12/25 12:53:01;;;;;;;;;;;;;;;14.98;65.52;98782.27;106380;1255;73722;-82
2023/12/25 12:55:41;;;;;;;;;;;;;;;15.15;64.96;98790.58;106499;1260;61237;-82
2023/12/25 12:58:21;;;;;;;;;;;;;;;15.31;64.03;98783.65;106502;1254;61193;-81
2023/12/25 13:01:00;;;;;;;;;;;;;;;15.14;64.74;98789.23;106751;1254;74673;-82
2023/12/25 13:03:41;;;;;;;;;;;;;;;15.28;64.14;98787.55;106754;1259;67243;-83
2023/12/25 13:06:21;;;;;;;;;;;;;;;15.39;63.21;98792.89;106739;1254;72243;-82
2023/12/25 13:09:04;;;;;;;;;;;;;;;15.24;63.50;98794.91;106562;1253;62340;-82
2023/12/25 13:11:45;;;;;;;;;;;;;;;15.19;63.62;98796.27;106897;1254;61306;-81
2023/12/25 13:14:25;;;;;;;;;;;;;;;15.11;63.56;98803.36;106558;1254;74661;-81
2023/12/25 13:17:05;;;;;;;;;;;;;;;15.10;63.78;98804.98;106520;1254;69762;-81
2023/12/25 13:19:45;;;;;;;;;;;;;;;15.13;63.60;98813.95;106334;1254;71389;-82
2023/12/25 13:22:24;;;;;;;;;;;;;;;15.10;64.11;98810.96;106459;1257;61200;-82
2023/12/25 13:25:04;;;;;;;;;;;;;;;15.15;64.84;98809.23;106286;1254;61314;-82
2023/12/25 13:27:44;;;;;;;;;;;;;;;15.18;64.99;98813.07;106457;1259;76877;-82
2023/12/25 13:30:24;;;;;;;;;;;;;;;15.26;65.04;98810.06;106264;1258;71119;-82
2023/12/25 13:33:07;;;;;;;;;;;;;;;15.31;64.86;98802.75;106312;1254;72724;-82
2023/12/25 13:35:47;;;;;;;;;;;;;;;15.33;65.01;98798.15;106466;1254;62799;-82
2023/12/25 13:38:27;;;;;;;;;;;;;;;15.27;65.54;98793.89;106297;1253;62108;-81
2023/12/25 13:41:07;;;;;;;;;;;;;;;15.29;65.68;98801.36;106286;1253;72957;-81
2023/12/25 13:43:48;;;;;;;;;;;;;;;15.40;65.45;98800.09;106610;1260;71429;-82
2023/12/25 13:46:28;;;;;;;;;;;;;;;15.41;65.30;98799.09;106372;1254;72696;-82
2023/12/25 13:49:08;;;;;;;;;;;;;;;15.44;64.95;98801.83;106792;1254;61224;-82
2023/12/25 13:51:47;;;;;;;;;;;;;;;15.56;64.01;98801.69;106611;1255;61324;-82
2023/12/25 13:54:23;;;;;;;;;;;;;;;15.49;64.11;98815.44;106320;1257;76608;-81